Time;durP1;ratioP1;P1;durP2;ratioP2;P2;SDS_P1;SDS_P2;PMS_P1;PMS_P2;Temp;Humidity;BMP_temperature;BMP_pressure;BME280_temperature;BME280_humidity;BME280_pressure;Samples;Min_cycle;Max_cycle;Signal;HPM_P1;HPM_P2
2022/03/05 00:00:08;;;;;;;43.17;13.60;;;-0.30;99.90;;;;;;5027640;28;20030;-69
2022/03/05 00:02:34;;;;;;;48.33;13.68;;;-0.40;99.90;;;;;;5019631;28;20030;-72
2022/03/05 00:05:00;;;;;;;36.35;12.95;;;-0.40;99.90;;;;;;5028783;28;20083;-72
2022/03/05 00:07:25;;;;;;;37.60;12.98;;;-0.40;99.90;;;;;;5019569;28;20612;-71
2022/03/05 00:09:51;;;;;;;49.92;16.60;;;-0.50;99.90;;;;;;5031224;28;20029;-72
2022/03/05 00:12:17;;;;;;;45.72;14.60;;;-0.70;99.90;;;;;;5042535;28;20044;-72
2022/03/05 00:14:43;;;;;;;39.53;12.77;;;-0.70;99.90;;;;;;5031731;28;20184;-71
2022/03/05 00:17:09;;;;;;;31.33;12.82;;;-0.70;99.90;;;;;;5047228;28;20082;-66
2022/03/05 00:19:34;;;;;;;38.35;12.68;;;-0.80;99.90;;;;;;5020672;28;20112;-72
2022/03/05 00:22:01;;;;;;;54.17;15.45;;;-0.90;99.90;;;;;;5009404;28;20064;-71
2022/03/05 00:24:27;;;;;;;41.03;13.25;;;-0.90;99.90;;;;;;5009249;28;20620;-69
2022/03/05 00:26:54;;;;;;;33.92;12.45;;;-0.90;99.90;;;;;;5040607;28;20032;-72
2022/03/05 00:29:19;;;;;;;33.65;11.95;;;-0.90;99.90;;;;;;5035458;28;20032;-72
2022/03/05 00:31:45;;;;;;;36.50;13.05;;;-1.20;99.90;;;;;;5028957;28;20589;-72
2022/03/05 00:34:11;;;;;;;33.47;10.73;;;-1.40;99.90;;;;;;5026802;28;20033;-68
2022/03/05 00:36:38;;;;;;;36.88;12.20;;;-1.40;99.90;;;;;;5027213;28;20418;-72
2022/03/05 00:39:05;;;;;;;37.47;12.40;;;-1.20;99.90;;;;;;5014898;28;20025;-72
2022/03/05 00:41:30;;;;;;;37.85;13.25;;;-1.30;99.90;;;;;;5037996;28;20035;-72
2022/03/05 00:43:56;;;;;;;38.78;13.20;;;-1.30;99.90;;;;;;5029374;28;20029;-73
2022/03/05 00:46:22;;;;;;;31.23;11.50;;;-1.60;99.90;;;;;;5027253;28;20037;-73
2022/03/05 00:48:48;;;;;;;38.42;12.63;;;-1.70;99.90;;;;;;5032012;28;20033;-72
2022/03/05 00:51:14;;;;;;;42.80;13.82;;;-1.60;99.90;;;;;;5028590;28;20163;-73
2022/03/05 00:53:39;;;;;;;37.45;12.35;;;-1.60;99.90;;;;;;5035518;28;20030;-73
2022/03/05 00:56:05;;;;;;;42.65;13.27;;;-1.60;99.90;;;;;;5039935;28;20491;-73
2022/03/05 00:58:31;;;;;;;40.22;13.45;;;-1.60;99.90;;;;;;5038153;28;20512;-72
2022/03/05 01:00:57;;;;;;;39.60;12.77;;;-1.70;99.90;;;;;;5044559;28;20032;-71
2022/03/05 01:03:22;;;;;;;35.10;11.90;;;-1.80;99.90;;;;;;5023975;28;20037;-72
2022/03/05 01:05:49;;;;;;;37.28;12.25;;;-1.80;99.90;;;;;;5027584;28;20072;-72
2022/03/05 01:08:14;;;;;;;35.22;12.82;;;-1.70;99.90;;;;;;5024065;28;20022;-72
2022/03/05 01:10:40;;;;;;;35.97;11.88;;;-1.90;99.90;;;;;;5029443;28;20028;-72
2022/03/05 01:13:06;;;;;;;36.50;12.35;;;-1.80;99.90;;;;;;5017301;28;20455;-73
2022/03/05 01:15:31;;;;;;;34.63;11.27;;;-1.80;99.90;;;;;;5022190;28;20631;-73
2022/03/05 01:17:57;;;;;;;31.45;10.55;;;-1.90;99.90;;;;;;5026866;28;20042;-72
2022/03/05 01:20:23;;;;;;;33.42;11.13;;;-1.80;99.90;;;;;;5034884;28;20052;-73
2022/03/05 01:22:49;;;;;;;37.03;11.40;;;-1.80;99.90;;;;;;5034762;28;20080;-72
2022/03/05 01:25:14;;;;;;;31.42;11.23;;;-1.80;99.90;;;;;;5031577;28;20548;-70
2022/03/05 01:27:40;;;;;;;54.50;15.57;;;-1.90;99.90;;;;;;5027758;28;20025;-72
2022/03/05 01:30:06;;;;;;;45.65;12.52;;;-1.90;99.90;;;;;;5028771;28;20509;-72
2022/03/05 01:32:32;;;;;;;36.78;12.70;;;-1.80;99.90;;;;;;5027293;28;20022;-72
2022/03/05 01:34:58;;;;;;;39.63;11.45;;;-1.80;99.90;;;;;;5029099;28;20101;-70
2022/03/05 01:37:23;;;;;;;40.53;11.73;;;-2.20;99.90;;;;;;5028512;28;20056;-73
2022/03/05 01:39:49;;;;;;;41.08;11.73;;;-2.30;99.90;;;;;;5009198;28;20086;-68
2022/03/05 01:42:19;;;;;;;36.35;11.65;;;-2.30;99.90;;;;;;5047050;28;20509;-67
2022/03/05 01:44:45;;;;;;;34.63;11.90;;;-2.20;99.90;;;;;;5047777;28;20040;-70
2022/03/05 01:47:10;;;;;;;32.72;12.38;;;-2.40;99.90;;;;;;5040186;28;20041;-72
2022/03/05 01:49:36;;;;;;;33.90;12.02;;;-2.50;99.90;;;;;;5041367;28;20542;-72
2022/03/05 01:52:02;;;;;;;37.10;12.15;;;-2.40;99.90;;;;;;5032418;28;20462;-71
2022/03/05 01:54:28;;;;;;;32.13;10.48;;;-2.50;99.90;;;;;;5031146;28;20053;-70
2022/03/05 01:56:55;;;;;;;32.67;11.48;;;-2.40;99.90;;;;;;5022979;28;20037;-73
2022/03/05 01:59:21;;;;;;;33.97;10.82;;;-2.50;99.90;;;;;;5032805;28;20108;-71
2022/03/05 02:01:46;;;;;;;33.13;10.27;;;-2.50;99.90;;;;;;5031686;28;20124;-71
2022/03/05 02:04:12;;;;;;;27.98;9.18;;;-2.30;99.90;;;;;;5031024;28;20053;-67
2022/03/05 02:06:38;;;;;;;30.92;9.80;;;-2.00;99.90;;;;;;5023364;28;20033;-71
2022/03/05 02:09:04;;;;;;;32.33;9.98;;;-1.80;99.90;;;;;;5011944;28;20403;-73
2022/03/05 02:11:30;;;;;;;32.25;10.45;;;-1.60;99.90;;;;;;5043606;28;20477;-72
2022/03/05 02:13:56;;;;;;;30.67;10.10;;;-1.40;99.90;;;;;;5030363;28;20104;-73
2022/03/05 02:16:22;;;;;;;32.78;10.05;;;-1.40;99.90;;;;;;5027766;28;20061;-72
2022/03/05 02:18:50;;;;;;;29.75;9.40;;;-1.30;99.90;;;;;;5030676;28;20036;-71
2022/03/05 02:21:16;;;;;;;29.63;10.85;;;-1.20;99.90;;;;;;5032174;28;20091;-67
2022/03/05 02:23:42;;;;;;;31.88;9.88;;;-1.20;99.90;;;;;;5029913;28;20065;-72
2022/03/05 02:26:08;;;;;;;33.17;9.98;;;-1.20;99.90;;;;;;5030242;28;20382;-71
2022/03/05 02:28:35;;;;;;;32.92;10.15;;;-1.10;99.90;;;;;;5030260;28;20036;-72
2022/03/05 02:31:01;;;;;;;35.80;10.63;;;-1.10;99.90;;;;;;5025320;28;20040;-72
2022/03/05 02:33:27;;;;;;;33.70;10.63;;;-1.10;99.90;;;;;;5030741;28;20025;-72
2022/03/05 02:35:53;;;;;;;35.10;11.55;;;-1.10;99.90;;;;;;5035100;28;20707;-72
2022/03/05 02:38:21;;;;;;;27.88;10.13;;;-1.10;99.90;;;;;;5023371;28;20553;-72
2022/03/05 02:40:47;;;;;;;32.72;11.10;;;-1.10;99.90;;;;;;5034362;28;20025;-72
2022/03/05 02:43:14;;;;;;;27.98;9.68;;;-1.10;99.90;;;;;;5030452;28;20508;-71
2022/03/05 02:45:40;;;;;;;39.50;10.45;;;-1.10;99.90;;;;;;5019927;28;20026;-71
2022/03/05 02:48:09;;;;;;;32.08;10.57;;;-1.10;99.90;;;;;;5036231;28;20394;-71
2022/03/05 02:50:35;;;;;;;30.83;10.30;;;-1.10;99.90;;;;;;5042911;28;20374;-71
2022/03/05 02:53:01;;;;;;;31.38;10.98;;;-1.10;99.90;;;;;;5028820;28;20152;-71
2022/03/05 02:55:27;;;;;;;31.35;10.85;;;-1.10;99.90;;;;;;5026345;28;20053;-72
2022/03/05 02:57:53;;;;;;;34.00;10.80;;;-1.10;99.90;;;;;;5010888;28;20044;-71
2022/03/05 03:00:18;;;;;;;32.17;10.20;;;-1.20;99.90;;;;;;5029728;28;20861;-66
2022/03/05 03:02:45;;;;;;;31.65;10.38;;;-1.20;99.90;;;;;;5031444;28;20029;-72
2022/03/05 03:05:12;;;;;;;28.35;9.98;;;-1.10;99.90;;;;;;5035371;28;20462;-71
2022/03/05 03:07:38;;;;;;;29.88;10.15;;;-1.20;99.90;;;;;;5029953;28;20021;-71
2022/03/05 03:10:08;;;;;;;32.92;10.43;;;-1.10;99.90;;;;;;5031258;28;20053;-71
2022/03/05 03:12:34;;;;;;;;;;;-1.20;99.90;;;;;;5030342;28;20033;-73
2022/03/05 03:15:00;;;;;;;31.75;10.68;;;-1.20;99.90;;;;;;5038578;28;20320;-70
2022/03/05 03:17:26;;;;;;;33.20;9.98;;;-1.20;99.90;;;;;;5046573;28;20065;-72
2022/03/05 03:19:51;;;;;;;35.03;11.35;;;-1.20;99.90;;;;;;5032663;28;20064;-72
2022/03/05 03:22:18;;;;;;;33.90;10.68;;;-1.20;99.90;;;;;;5047312;28;20135;-66
2022/03/05 03:24:43;;;;;;;32.55;10.40;;;-1.20;99.90;;;;;;5029955;28;20045;-72
2022/03/05 03:27:09;;;;;;;31.48;9.88;;;-1.20;99.90;;;;;;5035432;28;20029;-72
2022/03/05 03:29:35;;;;;;;29.13;9.93;;;-1.20;99.90;;;;;;5045194;28;20103;-72
2022/03/05 03:32:02;;;;;;;26.50;9.40;;;-1.30;99.90;;;;;;5033028;28;20550;-71
2022/03/05 03:34:27;;;;;;;28.63;9.60;;;-1.30;99.90;;;;;;5027721;28;20025;-73
2022/03/05 03:36:53;;;;;;;30.60;10.85;;;-1.30;99.90;;;;;;5028959;28;20462;-71
2022/03/05 03:39:19;;;;;;;32.58;11.27;;;-1.30;99.90;;;;;;5026206;28;20025;-67
2022/03/05 03:41:44;;;;;;;30.60;11.07;;;-1.40;99.90;;;;;;5042953;28;20073;-71
2022/03/05 03:44:10;;;;;;;30.60;9.77;;;-1.60;99.90;;;;;;5030071;28;20045;-72
2022/03/05 03:46:36;;;;;;;33.22;11.43;;;-1.70;99.90;;;;;;5042465;28;20033;-72
2022/03/05 03:49:02;;;;;;;35.28;11.38;;;-1.90;99.90;;;;;;5019585;28;20038;-71
2022/03/05 03:51:27;;;;;;;30.77;10.63;;;-2.20;99.90;;;;;;5042138;28;20573;-72
2022/03/05 03:53:53;;;;;;;32.67;10.63;;;-2.30;99.90;;;;;;5026510;28;20029;-71
2022/03/05 03:56:19;;;;;;;31.83;9.95;;;-2.20;99.90;;;;;;5029612;28;20033;-66
2022/03/05 03:58:44;;;;;;;33.33;11.55;;;-2.20;99.90;;;;;;5020198;28;20033;-72
2022/03/05 04:01:10;;;;;;;33.03;10.18;;;-2.20;99.90;;;;;;5028446;28;20033;-72
2022/03/05 04:03:36;;;;;;;33.05;10.68;;;-2.30;99.90;;;;;;5027713;28;20026;-69
2022/03/05 04:06:02;;;;;;;32.97;10.25;;;-2.40;99.90;;;;;;5023082;28;20077;-70
2022/03/05 04:08:42;;;;;;;38.10;10.48;;;-2.40;99.90;;;;;;5009203;28;20034;-72
2022/03/05 04:11:18;;;;;;;;;;;-2.40;99.90;;;;;;5032346;28;20029;-72
2022/03/05 04:13:48;;;;;;;33.78;10.68;;;-2.40;99.90;;;;;;5038533;28;19909;-72
2022/03/05 04:16:14;;;;;;;33.60;10.52;;;-2.40;99.90;;;;;;5027713;28;20074;-73
2022/03/05 04:18:40;;;;;;;31.30;10.40;;;-2.40;99.90;;;;;;5029164;28;20848;-71
2022/03/05 04:21:08;;;;;;;29.63;10.93;;;-2.40;99.90;;;;;;5028720;28;20053;-71
2022/03/05 04:23:34;;;;;;;33.53;10.68;;;-2.40;99.90;;;;;;5028417;28;20438;-72
2022/03/05 04:26:00;;;;;;;32.25;10.95;;;-2.40;99.90;;;;;;5033865;28;20041;-71
2022/03/05 04:28:26;;;;;;;37.72;10.60;;;-2.40;99.90;;;;;;5036406;28;20060;-71
2022/03/05 04:30:52;;;;;;;32.65;10.43;;;-2.40;99.90;;;;;;5027711;28;20029;-72
2022/03/05 04:33:17;;;;;;;37.17;11.20;;;-2.40;99.90;;;;;;5028614;28;20265;-69
2022/03/05 04:35:43;;;;;;;33.08;10.90;;;-2.40;99.90;;;;;;5030956;28;20025;-71
2022/03/05 04:38:09;;;;;;;36.35;10.98;;;-2.40;99.90;;;;;;5026826;28;20041;-72
2022/03/05 04:40:35;;;;;;;38.53;11.27;;;-2.40;99.90;;;;;;5028991;28;20029;-71
2022/03/05 04:43:01;;;;;;;32.78;10.50;;;-2.30;99.90;;;;;;5023883;28;20049;-70
2022/03/05 04:45:27;;;;;;;33.00;11.20;;;-2.40;99.90;;;;;;5026451;28;20114;-71
2022/03/05 04:47:53;;;;;;;35.47;10.88;;;-2.40;99.90;;;;;;5024214;28;20041;-72
2022/03/05 04:50:19;;;;;;;36.03;11.75;;;-2.50;99.90;;;;;;5025644;28;20084;-72
2022/03/05 04:52:45;;;;;;;33.40;10.70;;;-2.50;99.90;;;;;;5023585;28;20570;-70
2022/03/05 04:55:10;;;;;;;32.05;11.52;;;-2.50;99.90;;;;;;5033942;28;20068;-72
2022/03/05 04:57:37;;;;;;;34.13;10.20;;;-2.50;99.90;;;;;;5024361;28;20045;-73
2022/03/05 05:00:08;;;;;;;33.83;10.23;;;-2.60;99.90;;;;;;5026391;28;20041;-72
2022/03/05 05:02:34;;;;;;;32.38;11.55;;;-2.80;99.90;;;;;;5014681;28;20131;-72
2022/03/05 05:04:59;;;;;;;33.10;11.30;;;-2.80;99.90;;;;;;5041556;28;20067;-71
2022/03/05 05:07:26;;;;;;;35.25;11.35;;;-2.80;99.90;;;;;;5042530;28;20564;-66
2022/03/05 05:09:51;;;;;;;28.77;11.05;;;-2.90;99.90;;;;;;5028127;28;20449;-71
2022/03/05 05:12:17;;;;;;;30.33;11.05;;;-3.00;99.90;;;;;;5017130;28;20117;-71
2022/03/05 05:14:43;;;;;;;36.25;10.90;;;-3.00;99.90;;;;;;5026606;28;20043;-71
2022/03/05 05:17:08;;;;;;;34.10;11.25;;;-3.10;99.90;;;;;;5031474;28;20114;-72
2022/03/05 05:19:34;;;;;;;32.03;10.77;;;-3.10;99.90;;;;;;5031197;28;20045;-72
2022/03/05 05:22:03;;;;;;;35.92;11.40;;;-3.10;99.90;;;;;;5030661;28;20058;-70
2022/03/05 05:24:31;;;;;;;33.47;11.20;;;-3.20;99.90;;;;;;5049322;28;20246;-71
2022/03/05 05:26:57;;;;;;;33.75;11.43;;;-3.30;99.90;;;;;;5029982;28;20621;-72
2022/03/05 05:29:23;;;;;;;38.38;12.35;;;-3.20;99.90;;;;;;5032264;28;20447;-71
2022/03/05 05:31:50;;;;;;;34.05;10.82;;;-3.30;99.90;;;;;;5030137;28;20030;-72
2022/03/05 05:34:16;;;;;;;34.17;10.20;;;-3.30;99.90;;;;;;5064351;28;20056;-71
2022/03/05 05:36:42;;;;;;;33.95;10.10;;;-3.40;99.90;;;;;;5035040;28;20029;-70
2022/03/05 05:39:09;;;;;;;32.15;10.32;;;-3.40;99.90;;;;;;5032383;28;20084;-69
2022/03/05 05:41:35;;;;;;;28.42;10.98;;;-3.50;99.90;;;;;;5031257;28;20120;-71
2022/03/05 05:44:06;;;;;;;35.75;11.25;;;-3.50;99.90;;;;;;5031874;28;20026;-72
2022/03/05 05:46:32;;;;;;;36.65;11.68;;;-3.50;99.90;;;;;;5028985;28;20029;-71
2022/03/05 05:48:58;;;;;;;34.65;11.27;;;-3.60;99.90;;;;;;5037794;28;20041;-71
2022/03/05 05:51:25;;;;;;;36.55;11.80;;;-3.60;99.90;;;;;;5032157;28;20029;-72
2022/03/05 05:53:52;;;;;;;34.25;11.02;;;-3.70;99.90;;;;;;5029774;28;20039;-71
2022/03/05 05:56:18;;;;;;;36.15;11.27;;;-3.80;99.90;;;;;;5031084;28;20048;-72
2022/03/05 05:58:44;;;;;;;42.10;13.45;;;-3.90;99.90;;;;;;5029984;28;20093;-72
2022/03/05 06:01:10;;;;;;;34.25;11.93;;;-3.90;99.90;;;;;;5029869;28;20378;-72
2022/03/05 06:03:36;;;;;;;45.90;14.18;;;-3.80;99.90;;;;;;5030515;28;20087;-72
2022/03/05 06:06:02;;;;;;;41.45;11.73;;;-3.80;99.90;;;;;;5030911;28;20033;-72
2022/03/05 06:08:27;;;;;;;35.22;11.35;;;-3.80;99.90;;;;;;5015765;28;20200;-67
2022/03/05 06:10:57;;;;;;;37.75;11.80;;;-3.80;99.90;;;;;;5031752;28;20029;-71
2022/03/05 06:13:23;;;;;;;31.70;11.80;;;-3.80;99.90;;;;;;5031440;28;20084;-72
2022/03/05 06:15:49;;;;;;;41.25;12.43;;;-3.70;99.90;;;;;;5016444;28;20022;-72
2022/03/05 06:18:15;;;;;;;30.58;11.02;;;-3.70;99.90;;;;;;5028298;28;20039;-72
2022/03/05 06:20:40;;;;;;;34.60;11.20;;;-3.70;99.90;;;;;;5016553;28;20029;-72
2022/03/05 06:23:07;;;;;;;34.17;10.90;;;-3.70;99.90;;;;;;5018690;28;20111;-71
2022/03/05 06:25:33;;;;;;;38.90;12.35;;;-3.60;99.90;;;;;;5020497;28;20086;-70
2022/03/05 06:27:58;;;;;;;34.75;11.55;;;-3.50;99.90;;;;;;5021861;28;20046;-72
2022/03/05 06:30:25;;;;;;;39.78;11.57;;;-3.30;99.90;;;;;;5013756;28;20100;-73
2022/03/05 06:32:51;;;;;;;37.28;11.45;;;-3.20;99.90;;;;;;5026092;28;20033;-71
2022/03/05 06:35:17;;;;;;;44.63;14.02;;;-3.00;99.90;;;;;;5029379;28;20117;-72
2022/03/05 06:37:42;;;;;;;38.50;12.98;;;-2.90;99.90;;;;;;5000397;28;20487;-72
2022/03/05 06:40:11;;;;;;;39.10;12.95;;;-2.90;99.90;;;;;;5033347;28;20044;-71
2022/03/05 06:42:45;;;;;;;40.47;13.30;;;-3.10;99.90;;;;;;5026613;28;20030;-72
2022/03/05 06:45:11;;;;;;;40.80;12.90;;;-3.20;99.90;;;;;;5026843;28;20038;-72
2022/03/05 06:47:40;;;;;;;40.83;12.80;;;-3.10;99.90;;;;;;5026783;28;20029;-71
2022/03/05 06:50:08;;;;;;;41.13;13.77;;;-3.00;99.90;;;;;;5031240;28;20033;-71
2022/03/05 06:52:34;;;;;;;34.88;13.15;;;-2.90;99.90;;;;;;5027964;28;20026;-70
2022/03/05 06:55:00;;;;;;;37.35;14.25;;;-2.70;99.90;;;;;;5031023;28;20052;-72
2022/03/05 06:57:26;;;;;;;42.33;13.95;;;-2.60;99.90;;;;;;5018708;28;20064;-72
2022/03/05 06:59:52;;;;;;;39.33;14.77;;;-2.40;99.90;;;;;;5023536;28;20041;-70
2022/03/05 07:02:18;;;;;;;35.95;13.13;;;-2.40;99.90;;;;;;5024960;28;20513;-71
2022/03/05 07:04:44;;;;;;;37.42;13.70;;;-2.40;99.90;;;;;;5029034;28;20049;-71
2022/03/05 07:07:10;;;;;;;41.63;13.88;;;-2.50;99.90;;;;;;5027310;28;20355;-71
2022/03/05 07:09:36;;;;;;;40.97;13.10;;;-2.70;99.90;;;;;;5027426;28;20036;-71
2022/03/05 07:12:01;;;;;;;42.88;14.48;;;-2.70;99.90;;;;;;5030082;28;20471;-71
2022/03/05 07:14:27;;;;;;;42.28;17.48;;;-2.60;99.90;;;;;;5028931;28;20723;-71
2022/03/05 07:16:54;;;;;;;52.95;19.10;;;-2.50;99.90;;;;;;5016396;28;20254;-71
2022/03/05 07:19:20;;;;;;;45.22;16.60;;;-2.40;99.90;;;;;;5025217;28;20099;-70
2022/03/05 07:21:45;;;;;;;50.35;17.98;;;-2.30;99.90;;;;;;5026640;28;20029;-72
2022/03/05 07:24:11;;;;;;;44.85;14.57;;;-2.20;99.90;;;;;;5024513;28;20022;-71
2022/03/05 07:26:37;;;;;;;44.85;17.58;;;-2.10;99.90;;;;;;5020281;28;20521;-68
2022/03/05 07:29:02;;;;;;;51.38;16.45;;;-2.00;99.90;;;;;;5022088;28;20030;-70
2022/03/05 07:31:28;;;;;;;38.63;13.13;;;-1.80;99.90;;;;;;5011261;28;20412;-70
2022/03/05 07:33:54;;;;;;;44.25;15.10;;;-1.50;99.90;;;;;;5025627;28;20026;-70
2022/03/05 07:36:19;;;;;;;35.38;12.40;;;-1.40;99.90;;;;;;5025846;28;20037;-70
2022/03/05 07:38:45;;;;;;;38.33;11.80;;;-1.20;99.90;;;;;;5029691;28;20018;-70
2022/03/05 07:41:12;;;;;;;35.28;12.38;;;-1.10;99.90;;;;;;5026591;28;20037;-70
2022/03/05 07:43:39;;;;;;;37.22;12.10;;;-1.00;99.90;;;;;;5028215;28;20087;-70
2022/03/05 07:46:05;;;;;;;34.63;12.15;;;-0.80;99.90;;;;;;5028272;28;20029;-71
2022/03/05 07:48:31;;;;;;;37.10;12.05;;;-0.80;99.90;;;;;;5027685;28;20032;-71
2022/03/05 07:50:59;;;;;;;35.85;11.75;;;-0.60;99.90;;;;;;5032169;28;20127;-71
2022/03/05 07:53:27;;;;;;;33.13;11.07;;;-0.50;99.90;;;;;;5026165;28;20041;-71
2022/03/05 07:55:53;;;;;;;34.00;12.60;;;-0.40;99.90;;;;;;5030376;28;20053;-73
2022/03/05 07:58:19;;;;;;;41.40;12.38;;;-0.30;99.90;;;;;;5030175;28;20032;-71
2022/03/05 08:00:45;;;;;;;38.65;13.10;;;-0.30;99.90;;;;;;5026786;28;20037;-72
2022/03/05 08:03:11;;;;;;;37.40;13.18;;;-0.20;99.90;;;;;;5026793;28;20100;-71
2022/03/05 08:05:36;;;;;;;38.97;12.95;;;-0.10;99.90;;;;;;5029084;28;20117;-68
2022/03/05 08:08:02;;;;;;;40.75;13.68;;;0.10;99.90;;;;;;5029496;28;20796;-73
2022/03/05 08:10:28;;;;;;;41.92;14.18;;;0.20;99.90;;;;;;5029356;28;20039;-72
2022/03/05 08:12:54;;;;;;;37.63;12.38;;;0.30;99.90;;;;;;5028748;28;20115;-73
2022/03/05 08:15:20;;;;;;;45.92;14.23;;;0.40;99.90;;;;;;5029252;28;20038;-74
2022/03/05 08:18:00;;;;;;;38.10;12.52;;;0.60;99.90;;;;;;5027242;28;20095;-74
2022/03/05 08:20:27;;;;;;;29.33;11.15;;;0.70;99.90;;;;;;5027891;28;20033;-75
2022/03/05 08:22:53;;;;;;;38.03;12.60;;;0.70;99.90;;;;;;5028405;28;20053;-75
2022/03/05 08:25:20;;;;;;;37.22;12.70;;;0.70;99.90;;;;;;5040362;28;20060;-75
2022/03/05 08:27:47;;;;;;;40.70;13.27;;;0.80;99.90;;;;;;5048409;28;20029;-75
2022/03/05 08:30:13;;;;;;;40.15;13.38;;;1.00;99.90;;;;;;5049246;28;20040;-75
2022/03/05 08:32:39;;;;;;;40.60;14.60;;;1.20;99.90;;;;;;5047110;28;20024;-69
2022/03/05 08:35:06;;;;;;;42.72;13.43;;;1.30;99.90;;;;;;5049185;28;20543;-74
2022/03/05 08:37:33;;;;;;;40.42;13.38;;;1.50;99.90;;;;;;5049082;28;20037;-74
2022/03/05 08:39:58;;;;;;;39.35;12.13;;;1.50;99.90;;;;;;5030242;28;20114;-72
2022/03/05 08:42:24;;;;;;;39.95;13.60;;;1.60;99.90;;;;;;5035744;28;20747;-73
2022/03/05 08:44:50;;;;;;;35.75;13.05;;;1.60;99.90;;;;;;5020616;28;20044;-72
2022/03/05 08:47:16;;;;;;;38.28;13.43;;;1.70;99.90;;;;;;5023123;28;20029;-72
2022/03/05 08:49:42;;;;;;;41.30;14.05;;;1.80;99.90;;;;;;5020797;28;20482;-74
2022/03/05 08:52:08;;;;;;;41.53;14.80;;;1.90;99.90;;;;;;5019519;28;20044;-72
2022/03/05 08:54:34;;;;;;;40.80;13.60;;;2.20;99.90;;;;;;5027880;28;20076;-72
2022/03/05 08:57:00;;;;;;;38.58;14.75;;;2.20;99.90;;;;;;5025049;28;20068;-73
2022/03/05 08:59:26;;;;;;;39.15;13.13;;;2.40;99.90;;;;;;5023474;28;20052;-73
2022/03/05 09:01:52;;;;;;;43.05;13.18;;;2.50;99.90;;;;;;5027086;28;20483;-72
2022/03/05 09:04:18;;;;;;;36.47;14.07;;;2.50;99.90;;;;;;5009586;28;20204;-73
2022/03/05 09:06:44;;;;;;;43.58;13.23;;;2.40;99.90;;;;;;5023824;28;20025;-73
2022/03/05 09:09:10;;;;;;;37.55;13.10;;;2.50;99.90;;;;;;5022685;28;20512;-72
2022/03/05 09:11:37;;;;;;;37.88;12.75;;;2.50;99.90;;;;;;5003475;28;20113;-72
2022/03/05 09:14:04;;;;;;;43.47;13.73;;;2.70;99.90;;;;;;5009090;28;20088;-72
2022/03/05 09:16:31;;;;;;;33.13;13.27;;;2.90;99.90;;;;;;5011570;28;20124;-72
2022/03/05 09:18:57;;;;;;;37.42;14.13;;;3.00;99.90;;;;;;5020439;28;20038;-72
2022/03/05 09:21:22;;;;;;;36.55;13.80;;;3.20;99.90;;;;;;5025874;28;20037;-74
2022/03/05 09:23:48;;;;;;;38.08;13.50;;;3.50;99.90;;;;;;5028054;28;20414;-73
2022/03/05 09:26:15;;;;;;;39.70;12.13;;;3.80;99.90;;;;;;5024308;28;20069;-73
2022/03/05 09:28:41;;;;;;;32.40;11.73;;;3.90;99.90;;;;;;5038360;28;20104;-68
2022/03/05 09:31:07;;;;;;;34.08;13.13;;;4.10;99.90;;;;;;5008847;28;20033;-72
2022/03/05 09:33:32;;;;;;;33.55;12.10;;;3.80;99.90;;;;;;5024820;28;20371;-74
2022/03/05 09:35:58;;;;;;;37.35;13.15;;;3.80;99.90;;;;;;5017498;28;20486;-70
2022/03/05 09:38:24;;;;;;;35.25;12.23;;;4.00;99.90;;;;;;5017453;28;20029;-71
2022/03/05 09:40:50;;;;;;;31.42;11.50;;;4.00;99.90;;;;;;5026908;28;20083;-71
2022/03/05 09:43:19;;;;;;;37.53;12.60;;;4.20;99.90;;;;;;5014098;28;20109;-70
2022/03/05 09:45:45;;;;;;;31.52;11.48;;;4.30;99.90;;;;;;5020350;28;20041;-66
2022/03/05 09:48:14;;;;;;;42.00;11.85;;;4.40;99.90;;;;;;5026663;28;20057;-70
2022/03/05 09:50:40;;;;;;;25.02;9.00;;;4.40;99.90;;;;;;5027774;28;20513;-70
2022/03/05 09:53:06;;;;;;;29.52;11.48;;;4.40;99.90;;;;;;5022558;28;20038;-70
2022/03/05 09:55:32;;;;;;;28.08;10.32;;;4.60;99.90;;;;;;5022740;28;20045;-69
2022/03/05 09:57:58;;;;;;;28.33;10.68;;;4.70;99.90;;;;;;5023932;28;20037;-70
2022/03/05 10:00:24;;;;;;;28.35;9.88;;;4.80;99.90;;;;;;5019932;28;20084;-66
2022/03/05 10:02:49;;;;;;;25.70;8.57;;;5.10;99.90;;;;;;5054276;28;20045;-70
2022/03/05 10:05:21;;;;;;;21.70;7.80;;;5.30;96.50;;;;;;5036378;28;20040;-69
2022/03/05 10:07:59;;;;;;;20.27;7.07;;;5.40;85.10;;;;;;5021791;28;20026;-68
2022/03/05 10:10:25;;;;;;;13.45;5.50;;;5.50;78.10;;;;;;5033397;28;20033;-70
2022/03/05 10:12:50;;;;;;;13.43;4.88;;;5.40;77.00;;;;;;5027137;28;20040;-68
2022/03/05 10:15:23;;;;;;;14.48;5.32;;;5.50;70.50;;;;;;5019998;28;20042;-70
2022/03/05 10:18:00;;;;;;;17.90;6.30;;;5.40;70.10;;;;;;5026262;28;20433;-71
2022/03/05 10:20:28;;;;;;;16.23;6.05;;;5.50;66.70;;;;;;5024080;28;20030;-71
2022/03/05 10:23:07;;;;;;;15.95;6.30;;;5.50;67.60;;;;;;5019996;28;20497;-70
2022/03/05 10:25:42;;;;;;;19.13;6.45;;;5.60;68.60;;;;;;5029749;28;20033;-69
2022/03/05 10:28:13;;;;;;;14.13;6.57;;;5.60;70.40;;;;;;5029441;28;20098;-72
2022/03/05 10:30:42;;;;;;;13.70;4.65;;;5.70;70.80;;;;;;5027549;28;20025;-73
2022/03/05 10:33:09;;;;;;;16.88;4.88;;;5.70;64.20;;;;;;5035048;28;20021;-70
2022/03/05 10:35:35;;;;;;;12.20;4.78;;;5.60;59.30;;;;;;5027733;28;20040;-73
2022/03/05 10:38:01;;;;;;;16.90;5.45;;;5.50;64.40;;;;;;5020336;28;20046;-72
2022/03/05 10:40:32;;;;;;;21.00;4.45;;;5.30;63.50;;;;;;5020832;28;20108;-71
2022/03/05 10:43:00;;;;;;;15.55;5.30;;;5.20;62.00;;;;;;5025782;28;20033;-71
2022/03/05 10:45:29;;;;;;;13.20;5.03;;;5.20;64.70;;;;;;5016347;28;20116;-70
2022/03/05 10:47:56;;;;;;;12.73;4.85;;;5.30;62.70;;;;;;5027343;28;20051;-71
2022/03/05 10:50:24;;;;;;;12.07;5.15;;;5.40;63.90;;;;;;5030323;28;20036;-71
2022/03/05 10:52:54;;;;;;;12.73;5.18;;;5.70;62.70;;;;;;5027466;28;20026;-71
2022/03/05 10:55:23;;;;;;;18.08;7.07;;;5.80;63.30;;;;;;5017045;28;20042;-71
2022/03/05 10:58:00;;;;;;;16.60;6.35;;;6.00;64.60;;;;;;5023588;28;20037;-67
2022/03/05 11:00:26;;;;;;;16.75;6.57;;;5.90;64.80;;;;;;5017765;28;20691;-73
2022/03/05 11:02:54;;;;;;;17.67;6.78;;;6.00;65.90;;;;;;5013808;28;20037;-71
2022/03/05 11:05:20;;;;;;;23.75;7.88;;;6.20;65.30;;;;;;5029176;28;20102;-70
2022/03/05 11:07:49;;;;;;;25.02;10.02;;;6.30;64.60;;;;;;5019417;28;20079;-66
2022/03/05 11:10:18;;;;;;;17.80;7.20;;;6.40;65.00;;;;;;5023652;28;20565;-69
2022/03/05 11:12:51;;;;;;;17.65;7.30;;;6.60;65.70;;;;;;5020560;28;20030;-71
2022/03/05 11:15:20;;;;;;;28.38;8.45;;;6.80;63.30;;;;;;5030210;28;20741;-69
2022/03/05 11:17:49;;;;;;;19.45;7.63;;;6.70;63.60;;;;;;5030737;28;20075;-66
2022/03/05 11:20:15;;;;;;;22.98;7.55;;;6.60;63.50;;;;;;5028111;28;20040;-69
2022/03/05 11:22:49;;;;;;;17.77;7.32;;;6.90;62.20;;;;;;5026665;28;20609;-69
2022/03/05 11:25:17;;;;;;;19.88;7.57;;;7.10;60.30;;;;;;5027918;28;20571;-70
2022/03/05 11:28:00;;;;;;;18.17;7.60;;;7.30;61.20;;;;;;5022601;28;21532;-70
2022/03/05 11:30:27;;;;;;;18.33;7.15;;;7.40;59.30;;;;;;5035071;28;20131;-71
2022/03/05 11:32:54;;;;;;;19.58;7.00;;;7.30;59.30;;;;;;5049295;28;20032;-70
2022/03/05 11:35:24;;;;;;;17.60;6.85;;;7.20;58.10;;;;;;5022565;28;20029;-71
2022/03/05 11:37:51;;;;;;;21.05;7.07;;;7.10;58.50;;;;;;5025285;28;20034;-66
2022/03/05 11:40:37;;;;;;;17.02;6.35;;;7.20;57.30;;;;;;5014372;28;20034;-68
2022/03/05 11:43:23;;;;;;;15.93;6.10;;;7.30;56.70;;;;;;5021260;28;20080;-70
2022/03/05 11:45:58;;;;;;;15.77;6.97;;;7.70;57.90;;;;;;5010090;28;20026;-66
2022/03/05 11:48:28;;;;;;;16.67;6.70;;;7.60;54.60;;;;;;5016323;28;20025;-69
2022/03/05 11:50:56;;;;;;;16.67;7.03;;;7.30;54.90;;;;;;5009131;28;20394;-70
2022/03/05 11:53:22;;;;;;;18.15;7.07;;;7.00;56.60;;;;;;5024376;28;20063;-70
2022/03/05 11:55:49;;;;;;;17.45;6.93;;;7.00;57.50;;;;;;5029781;28;20501;-65
2022/03/05 11:58:16;;;;;;;19.23;6.63;;;7.30;57.40;;;;;;5019408;28;20029;-72
2022/03/05 12:00:44;;;;;;;16.95;6.55;;;6.90;55.80;;;;;;5026467;28;20463;-69
2022/03/05 12:03:20;;;;;;;15.73;6.68;;;6.90;56.90;;;;;;5029945;28;20691;-68
2022/03/05 12:05:46;;;;;;;15.60;6.00;;;6.90;56.00;;;;;;5027764;28;20029;-68
2022/03/05 12:08:35;;;;;;;16.05;6.28;;;6.60;55.70;;;;;;5022863;28;20025;-70
2022/03/05 12:11:12;;;;;;;17.73;6.53;;;7.00;56.40;;;;;;5035005;28;20482;-70
2022/03/05 12:13:54;;;;;;;15.90;6.43;;;7.20;56.10;;;;;;5026150;28;20037;-69
2022/03/05 12:16:28;;;;;;;17.02;6.38;;;7.40;56.20;;;;;;5028275;28;20117;-68
2022/03/05 12:18:56;;;;;;;18.83;6.13;;;6.70;54.90;;;;;;5028167;28;20045;-65
2022/03/05 12:21:33;;;;;;;13.02;5.88;;;5.70;56.50;;;;;;5026811;28;20545;-68
2022/03/05 12:24:10;;;;;;;16.13;6.57;;;5.70;58.90;;;;;;5032208;28;20078;-69
2022/03/05 12:26:41;;;;;;;16.85;6.20;;;6.30;58.90;;;;;;5020968;28;20047;-67
2022/03/05 12:29:08;;;;;;;18.15;7.80;;;6.70;56.60;;;;;;5024473;28;20087;-69
2022/03/05 12:31:39;;;;;;;13.80;5.65;;;6.60;55.80;;;;;;5036897;28;20033;-68